createdAt,value
2023-03-22T00:01:45.466Z,56.98
2023-03-22T00:05:45.561Z,57.65
2023-03-22T00:09:45.626Z,57.06
2023-03-22T00:13:45.739Z,57.20
2023-03-22T00:17:45.932Z,56.41
2023-03-22T00:21:45.956Z,55.44
2023-03-22T00:25:46.081Z,55.13
2023-03-22T00:29:46.266Z,55.30
2023-03-22T00:33:46.410Z,55.15
2023-03-22T00:37:46.506Z,55.74
2023-03-22T00:41:46.665Z,55.62
2023-03-22T00:45:46.869Z,56.16
2023-03-22T00:49:46.906Z,56.67
2023-03-22T00:53:47.007Z,56.23
2023-03-22T00:57:47.115Z,55.94
2023-03-22T01:01:47.242Z,56.93
2023-03-22T01:05:47.367Z,56.56
2023-03-22T01:09:47.425Z,56.45
2023-03-22T01:13:47.467Z,56.05
2023-03-22T01:17:47.654Z,56.33
2023-03-22T01:21:47.691Z,56.68
2023-03-22T01:25:47.759Z,56.31
2023-03-22T01:29:47.818Z,56.41
2023-03-22T01:33:47.975Z,56.90
2023-03-22T01:37:48.192Z,57.05
2023-03-22T01:41:48.402Z,56.98
2023-03-22T01:45:48.650Z,58.62
2023-03-22T01:49:48.660Z,59.07
2023-03-22T01:53:48.774Z,60.23
2023-03-22T01:57:48.859Z,60.40
2023-03-22T02:01:48.952Z,61.09
2023-03-22T02:05:49.110Z,60.71
2023-03-22T02:09:49.187Z,60.94
2023-03-22T02:13:49.292Z,61.00
2023-03-22T02:17:49.406Z,61.91
2023-03-22T02:21:49.510Z,61.33
2023-03-22T02:25:49.652Z,60.77
2023-03-22T02:29:49.834Z,60.76
2023-03-22T02:33:49.890Z,61.15
2023-03-22T02:37:50.063Z,60.06
2023-03-22T02:41:50.177Z,58.64
2023-03-22T02:45:50.317Z,58.07
2023-03-22T02:49:50.367Z,57.92
2023-03-22T02:53:50.447Z,58.65
2023-03-22T02:57:50.625Z,58.50
2023-03-22T03:01:50.746Z,57.65
2023-03-22T03:05:50.754Z,58.36
2023-03-22T03:09:50.886Z,57.78
2023-03-22T03:13:51.013Z,57.86
2023-03-22T03:17:51.138Z,57.90
2023-03-22T03:21:51.212Z,58.44
2023-03-22T03:25:51.326Z,59.75
2023-03-22T03:29:51.457Z,59.91
2023-03-22T03:33:51.577Z,59.39
2023-03-22T03:37:51.813Z,59.42
2023-03-22T03:41:51.784Z,59.40
2023-03-22T03:45:51.992Z,60.35
2023-03-22T03:49:51.996Z,59.80
2023-03-22T03:53:52.020Z,60.68
2023-03-22T03:57:52.173Z,60.19
2023-03-22T04:01:52.357Z,57.82
2023-03-22T04:05:52.429Z,58.01
2023-03-22T04:09:52.567Z,57.46
2023-03-22T04:13:52.652Z,57.04
2023-03-22T04:17:52.839Z,57.11
2023-03-22T04:21:53.033Z,57.21
2023-03-22T04:25:53.140Z,57.34
2023-03-22T04:29:53.274Z,57.61
2023-03-22T04:33:53.477Z,57.04
2023-03-22T04:37:53.613Z,56.66
2023-03-22T04:41:53.818Z,56.82
2023-03-22T04:45:53.931Z,57.76
2023-03-22T04:49:53.995Z,58.13
2023-03-22T04:53:54.108Z,59.25
2023-03-22T04:57:54.223Z,58.53
2023-03-22T05:01:54.470Z,58.26
2023-03-22T05:05:54.381Z,58.22
2023-03-22T05:09:54.547Z,58.38
2023-03-22T05:13:54.663Z,58.82
2023-03-22T05:17:54.799Z,57.99
2023-03-22T05:21:54.827Z,58.20
2023-03-22T05:25:54.869Z,58.00
2023-03-22T05:29:55.024Z,57.51
2023-03-22T05:33:55.104Z,57.85
2023-03-22T05:37:55.229Z,58.37
2023-03-22T05:41:55.841Z,57.74
2023-03-22T05:45:55.379Z,58.38
2023-03-22T05:49:55.477Z,56.52
2023-03-22T05:53:55.680Z,56.79
2023-03-22T05:57:55.836Z,56.78
2023-03-22T06:01:55.960Z,56.76
2023-03-22T06:05:56.148Z,56.69
2023-03-22T06:09:56.196Z,57.68
2023-03-22T06:13:56.405Z,58.72
2023-03-22T06:17:56.483Z,59.21
2023-03-22T06:21:56.581Z,59.31
2023-03-22T06:25:56.683Z,58.99
2023-03-22T06:29:56.795Z,58.37
2023-03-22T06:33:56.830Z,58.13
2023-03-22T06:37:56.947Z,54.50
2023-03-22T06:41:57.064Z,55.76
2023-03-22T06:45:57.324Z,56.48
2023-03-22T06:49:57.365Z,56.00
2023-03-22T06:53:57.481Z,55.71
2023-03-22T06:57:57.621Z,55.30
2023-03-22T07:01:57.669Z,54.81
2023-03-22T07:05:57.770Z,55.33
2023-03-22T07:09:57.888Z,56.17
2023-03-22T07:13:58.067Z,56.08
2023-03-22T07:17:58.145Z,56.00
2023-03-22T07:21:58.276Z,55.82
2023-03-22T07:25:58.340Z,54.58
2023-03-22T07:29:58.427Z,53.56
2023-03-22T07:33:58.497Z,52.61
2023-03-22T07:37:58.574Z,51.23
2023-03-22T07:41:58.715Z,50.44
2023-03-22T07:45:58.981Z,49.81
2023-03-22T07:49:59.367Z,49.62
2023-03-22T07:53:59.151Z,49.03
2023-03-22T07:57:59.253Z,48.03
2023-03-22T08:01:59.366Z,47.64
2023-03-22T08:05:59.453Z,46.97
2023-03-22T08:09:59.604Z,45.98
2023-03-22T08:13:59.659Z,45.43
2023-03-22T08:17:59.754Z,43.79
2023-03-22T08:21:59.857Z,43.84
2023-03-22T08:26:00.012Z,43.54
2023-03-22T08:30:00.030Z,42.97
2023-03-22T08:34:00.173Z,41.89
2023-03-22T08:38:00.215Z,41.51
2023-03-22T08:42:00.321Z,41.04
2023-03-22T08:46:00.441Z,40.61
2023-03-22T08:50:00.521Z,40.46
2023-03-22T08:54:00.627Z,39.26
2023-03-22T08:58:00.745Z,38.14
2023-03-22T09:02:01.046Z,37.51
2023-03-22T09:06:01.032Z,37.91
2023-03-22T09:10:01.186Z,36.15
2023-03-22T09:14:01.278Z,35.91
2023-03-22T09:18:01.360Z,34.71
2023-03-22T09:22:01.498Z,33.52
2023-03-22T09:26:01.617Z,33.45
2023-03-22T09:30:01.659Z,34.03
2023-03-22T09:34:01.855Z,32.45
2023-03-22T09:38:01.976Z,31.75
2023-03-22T09:42:02.185Z,32.33
2023-03-22T09:46:02.290Z,31.42
2023-03-22T09:50:02.378Z,31.90
2023-03-22T09:54:02.497Z,31.24
2023-03-22T09:58:02.624Z,30.97
2023-03-22T10:02:03.055Z,29.89
2023-03-22T10:06:02.906Z,30.08
2023-03-22T10:10:02.967Z,29.36
2023-03-22T10:14:03.085Z,28.88
2023-03-22T10:18:03.217Z,27.79
2023-03-22T10:22:03.352Z,27.12
2023-03-22T10:26:03.455Z,26.42
2023-03-22T10:30:03.613Z,26.78
2023-03-22T10:34:03.681Z,26.15
2023-03-22T10:38:03.720Z,26.22
2023-03-22T10:42:03.872Z,25.45
2023-03-22T10:46:04.043Z,24.91
2023-03-22T10:50:04.227Z,24.60
2023-03-22T10:54:04.260Z,23.07
2023-03-22T10:58:04.384Z,23.17
2023-03-22T11:02:04.626Z,22.94
2023-03-22T11:06:04.646Z,23.34
2023-03-22T11:10:04.852Z,22.92
2023-03-22T11:14:04.962Z,22.38
2023-03-22T11:18:05.089Z,21.61
2023-03-22T11:22:05.159Z,20.82
2023-03-22T11:26:05.317Z,20.97
2023-03-22T11:30:05.438Z,20.53
2023-03-22T11:34:05.505Z,20.86
2023-03-22T11:38:05.654Z,19.74
2023-03-22T11:42:05.767Z,20.30
2023-03-22T11:46:05.874Z,20.01
2023-03-22T11:50:06.891Z,20.10
2023-03-22T11:54:06.045Z,19.55
2023-03-22T11:58:06.134Z,18.49
2023-03-22T12:02:06.309Z,17.90
2023-03-22T12:06:06.493Z,18.97
2023-03-22T12:10:06.619Z,16.96
2023-03-22T12:14:06.651Z,15.57
2023-03-22T12:18:07.960Z,17.49
2023-03-22T12:22:06.886Z,16.98
2023-03-22T12:26:06.976Z,17.64
2023-03-22T12:30:07.106Z,18.38
2023-03-22T12:34:07.256Z,18.09
2023-03-22T12:38:07.311Z,18.23
2023-03-22T12:42:07.391Z,18.21
2023-03-22T12:46:07.505Z,18.45
2023-03-22T12:50:07.632Z,18.38
2023-03-22T12:54:07.716Z,18.30
2023-03-22T12:58:07.859Z,18.01
2023-03-22T13:02:08.020Z,18.08
2023-03-22T13:06:08.098Z,18.45
2023-03-22T13:10:08.207Z,18.10
2023-03-22T13:14:08.270Z,17.76
2023-03-22T13:18:08.453Z,17.74
2023-03-22T13:22:08.558Z,17.14
2023-03-22T13:26:08.631Z,17.22
2023-03-22T13:30:08.769Z,17.03
2023-03-22T13:34:08.922Z,16.51
2023-03-22T13:38:09.023Z,16.48
2023-03-22T13:42:09.065Z,17.14
2023-03-22T13:46:09.179Z,16.60
2023-03-22T13:50:09.198Z,16.16
2023-03-22T13:54:09.272Z,16.69
2023-03-22T13:58:09.402Z,16.29
2023-03-22T14:02:09.575Z,16.26
2023-03-22T14:06:09.665Z,16.63
2023-03-22T14:10:09.753Z,16.77
2023-03-22T14:14:09.838Z,16.21
2023-03-22T14:18:09.945Z,17.16
2023-03-22T14:47:10.276Z,16.55
2023-03-22T14:51:10.267Z,16.63
2023-03-22T14:55:10.208Z,16.70
2023-03-22T14:59:10.159Z,17.37
2023-03-22T15:03:11.506Z,17.31
2023-03-22T15:07:10.088Z,17.04
2023-03-22T15:11:11.527Z,17.76
2023-03-22T15:15:10.002Z,17.47
2023-03-22T15:19:10.350Z,17.90
2023-03-22T15:23:10.114Z,18.95
2023-03-22T15:27:10.327Z,18.45
2023-03-22T15:31:10.283Z,19.39
2023-03-22T15:35:10.364Z,19.78
2023-03-22T15:39:10.494Z,19.64
2023-03-22T15:43:10.606Z,20.85
2023-03-22T15:47:10.623Z,21.42
2023-03-22T15:51:10.764Z,21.53
2023-03-22T15:55:10.857Z,21.03
2023-03-22T15:59:10.987Z,21.53
2023-03-22T16:03:11.220Z,21.40
2023-03-22T16:07:11.274Z,22.38
2023-03-22T16:11:11.302Z,22.60
2023-03-22T16:15:11.464Z,22.24
2023-03-22T16:19:11.653Z,22.92
2023-03-22T16:23:11.685Z,23.74
2023-03-22T16:27:11.941Z,24.38
2023-03-22T16:31:12.149Z,24.79
2023-03-22T16:35:12.216Z,24.86
2023-03-22T16:39:12.417Z,25.22
2023-03-22T16:43:12.573Z,25.51
2023-03-22T16:47:12.750Z,25.87
2023-03-22T16:51:12.859Z,26.11
2023-03-22T16:55:12.965Z,26.00
2023-03-22T16:59:13.058Z,25.74
2023-03-22T17:03:13.229Z,27.00
2023-03-22T17:07:13.356Z,26.78
2023-03-22T17:11:13.444Z,26.69
2023-03-22T17:15:13.508Z,27.49
2023-03-22T17:19:13.686Z,27.63
2023-03-22T17:23:13.737Z,28.30
2023-03-22T17:27:13.862Z,28.90
2023-03-22T17:31:14.018Z,29.33
2023-03-22T17:35:14.158Z,29.87
2023-03-22T17:39:32.982Z,29.98
2023-03-22T17:43:15.247Z,29.95
2023-03-22T17:51:14.206Z,31.77
2023-03-22T17:55:19.650Z,33.69
2023-03-22T17:59:15.105Z,34.81
2023-03-22T18:03:14.089Z,35.55
2023-03-22T18:07:14.033Z,36.64
2023-03-22T18:11:14.065Z,37.61
2023-03-22T18:15:14.183Z,37.49
2023-03-22T18:19:14.321Z,38.13
2023-03-22T18:23:14.444Z,38.11
2023-03-22T18:27:15.860Z,38.22
2023-03-22T18:31:14.687Z,39.12
2023-03-22T18:35:14.830Z,39.15
2023-03-22T18:39:55.208Z,39.43
2023-03-22T18:43:15.855Z,39.73
2023-03-22T18:47:14.862Z,41.09
2023-03-22T18:51:14.818Z,41.87
2023-03-22T18:55:28.904Z,42.16
2023-03-22T18:59:15.859Z,41.89
2023-03-22T19:03:14.776Z,42.30
2023-03-22T19:07:19.960Z,43.04
2023-03-22T19:11:15.691Z,44.38
2023-03-22T19:19:14.653Z,43.95
2023-03-22T19:23:14.593Z,44.79
2023-03-22T19:27:18.339Z,45.09
2023-03-22T19:31:15.520Z,45.13
2023-03-22T19:35:14.486Z,45.26
2023-03-22T19:39:15.192Z,45.70
2023-03-22T19:43:14.548Z,46.07
2023-03-22T19:47:14.675Z,46.34
2023-03-22T19:51:14.799Z,46.38
2023-03-22T19:55:14.837Z,46.78
2023-03-22T19:59:16.981Z,48.06
2023-03-22T20:03:14.954Z,48.16
2023-03-22T20:07:14.918Z,49.33
2023-03-22T20:11:27.615Z,49.13
2023-03-22T20:15:15.822Z,48.40
2023-03-22T20:19:14.869Z,48.69
2023-03-22T20:23:14.770Z,48.95
2023-03-22T20:27:15.549Z,49.78
2023-03-22T20:31:14.899Z,49.12
2023-03-22T20:35:15.022Z,47.76
2023-03-22T20:39:15.095Z,47.69
2023-03-22T20:43:15.216Z,48.11
2023-03-22T20:47:15.341Z,47.94
2023-03-22T20:51:15.486Z,47.53
2023-03-22T20:55:15.653Z,46.61
2023-03-22T20:59:15.779Z,46.97
2023-03-22T21:03:15.839Z,47.57
2023-03-22T21:07:15.893Z,47.00
2023-03-22T21:11:15.997Z,46.66
2023-03-22T21:15:16.126Z,46.26
2023-03-22T21:19:16.926Z,46.17
2023-03-22T21:23:16.297Z,47.37
2023-03-22T21:27:16.439Z,48.74
2023-03-22T21:31:16.557Z,49.50
2023-03-22T21:35:16.603Z,49.21
2023-03-22T21:39:16.767Z,49.84
2023-03-22T21:43:16.821Z,50.47
2023-03-22T21:47:16.986Z,50.01
2023-03-22T21:51:17.079Z,49.63
2023-03-22T21:55:17.229Z,49.39
2023-03-22T21:59:17.310Z,49.16
2023-03-22T22:03:17.454Z,48.46
2023-03-22T22:07:17.574Z,49.21
2023-03-22T22:11:17.708Z,50.12
2023-03-22T22:15:17.833Z,50.44
2023-03-22T22:19:18.061Z,50.70
2023-03-22T22:23:18.063Z,50.28
2023-03-22T22:27:18.217Z,50.44
2023-03-22T22:31:18.404Z,50.45
2023-03-22T22:35:18.506Z,51.36
2023-03-22T22:39:18.658Z,51.80
2023-03-22T22:43:18.730Z,50.81
2023-03-22T22:47:18.865Z,50.93
2023-03-22T22:51:18.933Z,51.31
2023-03-22T22:55:19.100Z,51.93
2023-03-22T22:59:19.192Z,50.98
2023-03-22T23:03:19.291Z,50.10
2023-03-22T23:07:19.404Z,49.86
2023-03-22T23:11:19.479Z,49.72
2023-03-22T23:15:27.069Z,51.44
2023-03-22T23:19:20.601Z,51.95
2023-03-22T23:23:19.569Z,51.65
2023-03-22T23:27:19.508Z,51.95
2023-03-22T23:31:19.694Z,52.58
2023-03-22T23:35:19.806Z,54.24
2023-03-22T23:39:19.874Z,54.51
2023-03-22T23:43:19.969Z,53.29
2023-03-22T23:47:20.173Z,52.64
2023-03-22T23:51:20.282Z,52.44
2023-03-22T23:55:20.421Z,51.79
2023-03-22T23:59:20.572Z,51.77
